sensor_id;sensor_type;location;lat;lon;timestamp;P1;durP1;ratioP1;P2;durP2;ratioP2
19414;SDS011;9843;48.882;12.592;2023-03-21T00:01:14;6.17;;;5.57;;
19414;SDS011;9843;48.882;12.592;2023-03-21T00:03:43;6.07;;;5.33;;
19414;SDS011;9843;48.882;12.592;2023-03-21T00:06:13;7.80;;;6.07;;
19414;SDS011;9843;48.882;12.592;2023-03-21T00:08:40;6.40;;;5.87;;
19414;SDS011;9843;48.882;12.592;2023-03-21T00:11:08;7.40;;;6.10;;
19414;SDS011;9843;48.882;12.592;2023-03-21T00:13:36;7.43;;;6.73;;
19414;SDS011;9843;48.882;12.592;2023-03-21T00:16:06;12.10;;;7.47;;
19414;SDS011;9843;48.882;12.592;2023-03-21T00:18:39;8.67;;;6.03;;
19414;SDS011;9843;48.882;12.592;2023-03-21T00:21:09;7.63;;;7.00;;
19414;SDS011;9843;48.882;12.592;2023-03-21T00:23:36;8.60;;;7.37;;
19414;SDS011;9843;48.882;12.592;2023-03-21T00:26:04;7.70;;;7.07;;
19414;SDS011;9843;48.882;12.592;2023-03-21T00:28:34;10.07;;;6.77;;
19414;SDS011;9843;48.882;12.592;2023-03-21T00:31:01;13.90;;;10.90;;
19414;SDS011;9843;48.882;12.592;2023-03-21T00:33:28;14.13;;;10.77;;
19414;SDS011;9843;48.882;12.592;2023-03-21T00:35:55;11.83;;;8.53;;
19414;SDS011;9843;48.882;12.592;2023-03-21T00:38:24;12.60;;;9.83;;
19414;SDS011;9843;48.882;12.592;2023-03-21T00:40:51;9.40;;;7.20;;
19414;SDS011;9843;48.882;12.592;2023-03-21T00:43:18;7.27;;;6.50;;
19414;SDS011;9843;48.882;12.592;2023-03-21T00:45:47;11.83;;;7.93;;
19414;SDS011;9843;48.882;12.592;2023-03-21T00:48:14;9.57;;;7.63;;
19414;SDS011;9843;48.882;12.592;2023-03-21T00:50:43;6.43;;;5.83;;
19414;SDS011;9843;48.882;12.592;2023-03-21T00:53:11;8.80;;;8.07;;
19414;SDS011;9843;48.882;12.592;2023-03-21T00:55:39;7.43;;;6.03;;
19414;SDS011;9843;48.882;12.592;2023-03-21T00:58:06;6.60;;;6.00;;
19414;SDS011;9843;48.882;12.592;2023-03-21T01:00:34;7.53;;;6.30;;
19414;SDS011;9843;48.882;12.592;2023-03-21T01:03:01;7.07;;;6.37;;
19414;SDS011;9843;48.882;12.592;2023-03-21T01:05:32;9.53;;;7.77;;
19414;SDS011;9843;48.882;12.592;2023-03-21T01:08:17;6.43;;;5.87;;
19414;SDS011;9843;48.882;12.592;2023-03-21T01:10:47;7.97;;;7.17;;
19414;SDS011;9843;48.882;12.592;2023-03-21T01:13:15;8.53;;;6.40;;
19414;SDS011;9843;48.882;12.592;2023-03-21T01:15:43;7.57;;;6.87;;
19414;SDS011;9843;48.882;12.592;2023-03-21T01:18:10;6.30;;;5.73;;
19414;SDS011;9843;48.882;12.592;2023-03-21T01:20:38;6.90;;;6.23;;
19414;SDS011;9843;48.882;12.592;2023-03-21T01:23:06;6.60;;;6.00;;
19414;SDS011;9843;48.882;12.592;2023-03-21T01:25:33;7.53;;;6.73;;
19414;SDS011;9843;48.882;12.592;2023-03-21T01:28:02;6.93;;;6.23;;
19414;SDS011;9843;48.882;12.592;2023-03-21T01:30:29;7.17;;;6.43;;
19414;SDS011;9843;48.882;12.592;2023-03-21T01:32:56;6.43;;;5.93;;
19414;SDS011;9843;48.882;12.592;2023-03-21T01:35:23;6.10;;;5.60;;
19414;SDS011;9843;48.882;12.592;2023-03-21T01:37:50;9.30;;;8.33;;
19414;SDS011;9843;48.882;12.592;2023-03-21T01:40:18;7.73;;;6.93;;
19414;SDS011;9843;48.882;12.592;2023-03-21T01:42:45;5.40;;;5.00;;
19414;SDS011;9843;48.882;12.592;2023-03-21T01:48:05;7.07;;;6.37;;
19414;SDS011;9843;48.882;12.592;2023-03-21T01:50:32;9.90;;;6.00;;
19414;SDS011;9843;48.882;12.592;2023-03-21T01:53:00;6.80;;;6.13;;
19414;SDS011;9843;48.882;12.592;2023-03-21T01:55:28;8.83;;;7.57;;
19414;SDS011;9843;48.882;12.592;2023-03-21T01:57:56;6.63;;;5.83;;
19414;SDS011;9843;48.882;12.592;2023-03-21T02:00:24;8.37;;;6.77;;
19414;SDS011;9843;48.882;12.592;2023-03-21T02:02:53;6.90;;;6.20;;
19414;SDS011;9843;48.882;12.592;2023-03-21T02:05:25;9.43;;;6.53;;
19414;SDS011;9843;48.882;12.592;2023-03-21T02:07:52;8.97;;;6.77;;
19414;SDS011;9843;48.882;12.592;2023-03-21T02:10:20;7.03;;;6.33;;
19414;SDS011;9843;48.882;12.592;2023-03-21T02:12:47;7.87;;;6.87;;
19414;SDS011;9843;48.882;12.592;2023-03-21T02:15:15;6.40;;;5.87;;
19414;SDS011;9843;48.882;12.592;2023-03-21T02:17:42;7.53;;;6.63;;
19414;SDS011;9843;48.882;12.592;2023-03-21T02:20:18;7.50;;;6.90;;
19414;SDS011;9843;48.882;12.592;2023-03-21T02:22:59;5.80;;;5.30;;
19414;SDS011;9843;48.882;12.592;2023-03-21T02:25:46;6.40;;;5.80;;
19414;SDS011;9843;48.882;12.592;2023-03-21T02:28:17;6.33;;;5.83;;
19414;SDS011;9843;48.882;12.592;2023-03-21T02:30:52;7.17;;;6.47;;
19414;SDS011;9843;48.882;12.592;2023-03-21T02:33:36;6.40;;;5.80;;
19414;SDS011;9843;48.882;12.592;2023-03-21T02:36:17;9.90;;;6.50;;
19414;SDS011;9843;48.882;12.592;2023-03-21T02:38:52;8.40;;;7.03;;
19414;SDS011;9843;48.882;12.592;2023-03-21T02:41:23;7.33;;;6.10;;
19414;SDS011;9843;48.882;12.592;2023-03-21T02:43:53;7.37;;;6.50;;
19414;SDS011;9843;48.882;12.592;2023-03-21T02:46:25;7.60;;;6.87;;
19414;SDS011;9843;48.882;12.592;2023-03-21T02:48:55;6.50;;;5.90;;
19414;SDS011;9843;48.882;12.592;2023-03-21T02:51:23;7.67;;;6.93;;
19414;SDS011;9843;48.882;12.592;2023-03-21T02:53:54;7.17;;;6.47;;
19414;SDS011;9843;48.882;12.592;2023-03-21T02:56:23;9.07;;;7.47;;
19414;SDS011;9843;48.882;12.592;2023-03-21T02:58:51;11.90;;;6.53;;
19414;SDS011;9843;48.882;12.592;2023-03-21T03:01:18;10.60;;;6.53;;
19414;SDS011;9843;48.882;12.592;2023-03-21T03:03:45;7.27;;;6.20;;
19414;SDS011;9843;48.882;12.592;2023-03-21T03:06:14;8.97;;;6.60;;
19414;SDS011;9843;48.882;12.592;2023-03-21T03:08:44;6.97;;;5.77;;
19414;SDS011;9843;48.882;12.592;2023-03-21T03:11:18;7.93;;;6.50;;
19414;SDS011;9843;48.882;12.592;2023-03-21T03:13:56;7.10;;;6.10;;
19414;SDS011;9843;48.882;12.592;2023-03-21T03:16:29;9.27;;;7.30;;
19414;SDS011;9843;48.882;12.592;2023-03-21T03:19:01;7.73;;;7.03;;
19414;SDS011;9843;48.882;12.592;2023-03-21T03:21:31;7.10;;;6.33;;
19414;SDS011;9843;48.882;12.592;2023-03-21T03:24:02;7.17;;;6.47;;
19414;SDS011;9843;48.882;12.592;2023-03-21T03:26:33;8.10;;;7.30;;
19414;SDS011;9843;48.882;12.592;2023-03-21T03:29:03;7.37;;;6.53;;
19414;SDS011;9843;48.882;12.592;2023-03-21T03:31:32;6.83;;;6.30;;
19414;SDS011;9843;48.882;12.592;2023-03-21T03:34:04;5.97;;;5.50;;
19414;SDS011;9843;48.882;12.592;2023-03-21T03:36:33;6.60;;;5.97;;
19414;SDS011;9843;48.882;12.592;2023-03-21T03:39:03;8.97;;;7.03;;
19414;SDS011;9843;48.882;12.592;2023-03-21T03:41:32;7.23;;;5.83;;
19414;SDS011;9843;48.882;12.592;2023-03-21T03:44:01;6.77;;;6.27;;
19414;SDS011;9843;48.882;12.592;2023-03-21T03:46:29;6.93;;;5.97;;
19414;SDS011;9843;48.882;12.592;2023-03-21T03:48:57;7.87;;;6.57;;
19414;SDS011;9843;48.882;12.592;2023-03-21T03:51:27;9.73;;;7.63;;
19414;SDS011;9843;48.882;12.592;2023-03-21T03:53:56;10.23;;;6.17;;
19414;SDS011;9843;48.882;12.592;2023-03-21T03:56:24;7.23;;;6.57;;
19414;SDS011;9843;48.882;12.592;2023-03-21T03:58:53;7.47;;;6.57;;
19414;SDS011;9843;48.882;12.592;2023-03-21T04:01:21;6.87;;;6.23;;
19414;SDS011;9843;48.882;12.592;2023-03-21T04:03:48;6.30;;;5.77;;
19414;SDS011;9843;48.882;12.592;2023-03-21T04:06:16;8.57;;;5.93;;
19414;SDS011;9843;48.882;12.592;2023-03-21T04:08:43;7.60;;;6.37;;
19414;SDS011;9843;48.882;12.592;2023-03-21T04:11:12;7.90;;;7.00;;
19414;SDS011;9843;48.882;12.592;2023-03-21T04:13:39;8.00;;;7.40;;
19414;SDS011;9843;48.882;12.592;2023-03-21T04:16:08;8.37;;;6.50;;
19414;SDS011;9843;48.882;12.592;2023-03-21T04:18:35;7.17;;;6.57;;
19414;SDS011;9843;48.882;12.592;2023-03-21T04:21:06;7.67;;;6.97;;
19414;SDS011;9843;48.882;12.592;2023-03-21T04:23:33;7.47;;;6.77;;
19414;SDS011;9843;48.882;12.592;2023-03-21T04:26:00;7.60;;;7.10;;
19414;SDS011;9843;48.882;12.592;2023-03-21T04:28:27;7.23;;;6.63;;
19414;SDS011;9843;48.882;12.592;2023-03-21T04:30:54;8.30;;;6.77;;
19414;SDS011;9843;48.882;12.592;2023-03-21T04:33:23;7.70;;;7.00;;
19414;SDS011;9843;48.882;12.592;2023-03-21T04:35:51;7.47;;;6.70;;
19414;SDS011;9843;48.882;12.592;2023-03-21T04:38:20;14.33;;;6.77;;
19414;SDS011;9843;48.882;12.592;2023-03-21T04:40:47;8.47;;;6.93;;
19414;SDS011;9843;48.882;12.592;2023-03-21T04:43:14;7.93;;;7.23;;
19414;SDS011;9843;48.882;12.592;2023-03-21T04:45:41;8.90;;;7.97;;
19414;SDS011;9843;48.882;12.592;2023-03-21T04:48:08;7.80;;;7.20;;
19414;SDS011;9843;48.882;12.592;2023-03-21T04:50:39;8.90;;;8.10;;
19414;SDS011;9843;48.882;12.592;2023-03-21T04:53:06;7.40;;;6.70;;
19414;SDS011;9843;48.882;12.592;2023-03-21T04:55:33;13.87;;;7.43;;
19414;SDS011;9843;48.882;12.592;2023-03-21T04:58:00;8.90;;;8.10;;
19414;SDS011;9843;48.882;12.592;2023-03-21T05:00:27;8.07;;;7.33;;
19414;SDS011;9843;48.882;12.592;2023-03-21T05:02:56;7.23;;;6.63;;
19414;SDS011;9843;48.882;12.592;2023-03-21T05:05:24;9.60;;;6.90;;
19414;SDS011;9843;48.882;12.592;2023-03-21T05:07:52;9.60;;;7.37;;
19414;SDS011;9843;48.882;12.592;2023-03-21T05:10:19;10.70;;;7.10;;
19414;SDS011;9843;48.882;12.592;2023-03-21T05:12:46;10.00;;;7.87;;
19414;SDS011;9843;48.882;12.592;2023-03-21T05:15:13;10.97;;;7.00;;
19414;SDS011;9843;48.882;12.592;2023-03-21T05:17:40;9.20;;;7.30;;
19414;SDS011;9843;48.882;12.592;2023-03-21T05:20:08;6.97;;;6.30;;
19414;SDS011;9843;48.882;12.592;2023-03-21T05:22:36;7.73;;;7.03;;
19414;SDS011;9843;48.882;12.592;2023-03-21T05:25:07;17.70;;;10.17;;
19414;SDS011;9843;48.882;12.592;2023-03-21T05:27:35;8.13;;;7.33;;
19414;SDS011;9843;48.882;12.592;2023-03-21T05:30:03;7.90;;;7.10;;
19414;SDS011;9843;48.882;12.592;2023-03-21T05:32:31;11.80;;;7.77;;
19414;SDS011;9843;48.882;12.592;2023-03-21T05:34:59;9.13;;;8.17;;
19414;SDS011;9843;48.882;12.592;2023-03-21T05:37:26;10.10;;;7.90;;
19414;SDS011;9843;48.882;12.592;2023-03-21T05:39:53;7.70;;;6.97;;
19414;SDS011;9843;48.882;12.592;2023-03-21T05:42:22;8.53;;;7.53;;
19414;SDS011;9843;48.882;12.592;2023-03-21T05:44:49;9.23;;;7.17;;
19414;SDS011;9843;48.882;12.592;2023-03-21T05:47:16;7.97;;;7.27;;
19414;SDS011;9843;48.882;12.592;2023-03-21T05:49:44;8.80;;;6.00;;
19414;SDS011;9843;48.882;12.592;2023-03-21T05:52:11;9.67;;;6.40;;
19414;SDS011;9843;48.882;12.592;2023-03-21T05:54:38;8.57;;;7.87;;
19414;SDS011;9843;48.882;12.592;2023-03-21T05:57:05;6.63;;;5.97;;
19414;SDS011;9843;48.882;12.592;2023-03-21T05:59:34;6.90;;;6.30;;
19414;SDS011;9843;48.882;12.592;2023-03-21T06:02:01;7.83;;;7.03;;
19414;SDS011;9843;48.882;12.592;2023-03-21T06:04:28;7.70;;;6.93;;
19414;SDS011;9843;48.882;12.592;2023-03-21T06:06:55;8.40;;;7.60;;
19414;SDS011;9843;48.882;12.592;2023-03-21T06:09:23;9.07;;;7.03;;
19414;SDS011;9843;48.882;12.592;2023-03-21T06:11:51;11.73;;;7.80;;
19414;SDS011;9843;48.882;12.592;2023-03-21T06:14:18;10.90;;;7.87;;
19414;SDS011;9843;48.882;12.592;2023-03-21T06:16:47;12.13;;;7.97;;
19414;SDS011;9843;48.882;12.592;2023-03-21T06:19:14;10.17;;;7.00;;
19414;SDS011;9843;48.882;12.592;2023-03-21T06:21:41;9.57;;;8.00;;
19414;SDS011;9843;48.882;12.592;2023-03-21T06:24:09;7.67;;;6.97;;
19414;SDS011;9843;48.882;12.592;2023-03-21T06:26:36;9.00;;;7.93;;
19414;SDS011;9843;48.882;12.592;2023-03-21T06:29:03;8.53;;;7.67;;
19414;SDS011;9843;48.882;12.592;2023-03-21T06:31:30;10.83;;;7.80;;
19414;SDS011;9843;48.882;12.592;2023-03-21T06:33:58;11.17;;;7.27;;
19414;SDS011;9843;48.882;12.592;2023-03-21T06:36:25;10.20;;;7.30;;
19414;SDS011;9843;48.882;12.592;2023-03-21T06:38:52;7.73;;;6.93;;
19414;SDS011;9843;48.882;12.592;2023-03-21T06:41:20;10.40;;;8.63;;
19414;SDS011;9843;48.882;12.592;2023-03-21T06:43:47;11.00;;;9.80;;
19414;SDS011;9843;48.882;12.592;2023-03-21T06:46:14;8.63;;;7.73;;
19414;SDS011;9843;48.882;12.592;2023-03-21T06:48:41;7.90;;;7.10;;
19414;SDS011;9843;48.882;12.592;2023-03-21T06:51:11;10.20;;;7.27;;
19414;SDS011;9843;48.882;12.592;2023-03-21T06:53:38;10.97;;;7.07;;
19414;SDS011;9843;48.882;12.592;2023-03-21T06:56:06;9.30;;;6.30;;
19414;SDS011;9843;48.882;12.592;2023-03-21T06:58:33;23.33;;;7.97;;
19414;SDS011;9843;48.882;12.592;2023-03-21T07:01:01;9.05;;;7.53;;
19414;SDS011;9843;48.882;12.592;2023-03-21T07:03:28;7.17;;;6.50;;
19414;SDS011;9843;48.882;12.592;2023-03-21T07:05:55;13.50;;;6.77;;
19414;SDS011;9843;48.882;12.592;2023-03-21T07:08:23;8.30;;;5.93;;
19414;SDS011;9843;48.882;12.592;2023-03-21T07:10:54;8.63;;;6.82;;
19414;SDS011;9843;48.882;12.592;2023-03-21T07:13:21;7.70;;;6.00;;
19414;SDS011;9843;48.882;12.592;2023-03-21T07:15:48;8.33;;;5.67;;
19414;SDS011;9843;48.882;12.592;2023-03-21T07:18:15;5.50;;;4.97;;
19414;SDS011;9843;48.882;12.592;2023-03-21T07:20:44;6.70;;;5.55;;
19414;SDS011;9843;48.882;12.592;2023-03-21T07:23:14;8.88;;;6.10;;
19414;SDS011;9843;48.882;12.592;2023-03-21T07:25:43;5.83;;;5.23;;
19414;SDS011;9843;48.882;12.592;2023-03-21T07:28:10;13.23;;;6.10;;
19414;SDS011;9843;48.882;12.592;2023-03-21T07:30:37;6.90;;;6.03;;
19414;SDS011;9843;48.882;12.592;2023-03-21T07:33:05;6.40;;;5.37;;
19414;SDS011;9843;48.882;12.592;2023-03-21T07:35:32;6.43;;;4.67;;
19414;SDS011;9843;48.882;12.592;2023-03-21T07:38:00;6.10;;;5.50;;
19414;SDS011;9843;48.882;12.592;2023-03-21T07:40:27;8.77;;;5.43;;
19414;SDS011;9843;48.882;12.592;2023-03-21T07:42:55;4.93;;;4.27;;
19414;SDS011;9843;48.882;12.592;2023-03-21T07:45:22;5.67;;;5.07;;
19414;SDS011;9843;48.882;12.592;2023-03-21T07:47:51;9.80;;;5.57;;
19414;SDS011;9843;48.882;12.592;2023-03-21T07:50:18;7.10;;;5.87;;
19414;SDS011;9843;48.882;12.592;2023-03-21T07:52:46;5.90;;;5.27;;
19414;SDS011;9843;48.882;12.592;2023-03-21T07:55:13;6.03;;;4.77;;
19414;SDS011;9843;48.882;12.592;2023-03-21T07:57:41;8.73;;;4.67;;
19414;SDS011;9843;48.882;12.592;2023-03-21T08:00:10;12.83;;;7.63;;
19414;SDS011;9843;48.882;12.592;2023-03-21T08:02:37;6.83;;;4.60;;
19414;SDS011;9843;48.882;12.592;2023-03-21T08:05:05;9.27;;;4.40;;
19414;SDS011;9843;48.882;12.592;2023-03-21T08:07:32;6.40;;;4.47;;
19414;SDS011;9843;48.882;12.592;2023-03-21T08:09:59;6.70;;;4.33;;
19414;SDS011;9843;48.882;12.592;2023-03-21T08:12:26;9.47;;;5.33;;
19414;SDS011;9843;48.882;12.592;2023-03-21T08:14:53;6.47;;;5.20;;
19414;SDS011;9843;48.882;12.592;2023-03-21T08:17:21;7.03;;;4.97;;
19414;SDS011;9843;48.882;12.592;2023-03-21T08:19:48;5.57;;;4.87;;
19414;SDS011;9843;48.882;12.592;2023-03-21T08:22:15;7.73;;;4.30;;
19414;SDS011;9843;48.882;12.592;2023-03-21T08:24:42;9.70;;;5.88;;
19414;SDS011;9843;48.882;12.592;2023-03-21T08:27:09;11.17;;;4.80;;
19414;SDS011;9843;48.882;12.592;2023-03-21T08:29:37;6.63;;;4.50;;
19414;SDS011;9843;48.882;12.592;2023-03-21T08:32:06;8.33;;;5.33;;
19414;SDS011;9843;48.882;12.592;2023-03-21T08:34:34;6.50;;;5.77;;
19414;SDS011;9843;48.882;12.592;2023-03-21T08:37:01;6.67;;;4.40;;
19414;SDS011;9843;48.882;12.592;2023-03-21T08:39:28;6.30;;;5.00;;
19414;SDS011;9843;48.882;12.592;2023-03-21T08:41:55;7.50;;;4.85;;
19414;SDS011;9843;48.882;12.592;2023-03-21T08:44:22;6.35;;;5.78;;
19414;SDS011;9843;48.882;12.592;2023-03-21T08:46:50;7.30;;;5.25;;
19414;SDS011;9843;48.882;12.592;2023-03-21T08:49:18;6.22;;;4.35;;
19414;SDS011;9843;48.882;12.592;2023-03-21T08:51:46;4.55;;;3.42;;
19414;SDS011;9843;48.882;12.592;2023-03-21T08:54:17;6.03;;;4.20;;
19414;SDS011;9843;48.882;12.592;2023-03-21T08:56:44;7.38;;;4.45;;
19414;SDS011;9843;48.882;12.592;2023-03-21T08:59:12;7.80;;;4.28;;
19414;SDS011;9843;48.882;12.592;2023-03-21T09:01:39;11.38;;;4.00;;
19414;SDS011;9843;48.882;12.592;2023-03-21T09:04:06;9.27;;;4.05;;
19414;SDS011;9843;48.882;12.592;2023-03-21T09:06:35;7.13;;;4.22;;
19414;SDS011;9843;48.882;12.592;2023-03-21T09:09:03;9.05;;;5.80;;
19414;SDS011;9843;48.882;12.592;2023-03-21T09:11:31;4.60;;;3.15;;
19414;SDS011;9843;48.882;12.592;2023-03-21T09:13:59;4.30;;;2.55;;
19414;SDS011;9843;48.882;12.592;2023-03-21T09:16:26;9.20;;;4.63;;
19414;SDS011;9843;48.882;12.592;2023-03-21T09:18:53;7.07;;;4.03;;
19414;SDS011;9843;48.882;12.592;2023-03-21T09:21:23;3.95;;;3.25;;
19414;SDS011;9843;48.882;12.592;2023-03-21T09:23:50;6.45;;;3.25;;
19414;SDS011;9843;48.882;12.592;2023-03-21T09:26:21;4.75;;;3.55;;
19414;SDS011;9843;48.882;12.592;2023-03-21T09:28:49;7.22;;;4.63;;
19414;SDS011;9843;48.882;12.592;2023-03-21T09:31:17;8.65;;;4.35;;
19414;SDS011;9843;48.882;12.592;2023-03-21T09:33:46;8.68;;;5.80;;
19414;SDS011;9843;48.882;12.592;2023-03-21T09:36:14;4.57;;;3.50;;
19414;SDS011;9843;48.882;12.592;2023-03-21T09:38:43;10.73;;;4.80;;
19414;SDS011;9843;48.882;12.592;2023-03-21T09:41:15;6.38;;;3.42;;
19414;SDS011;9843;48.882;12.592;2023-03-21T09:43:48;5.90;;;2.80;;
19414;SDS011;9843;48.882;12.592;2023-03-21T09:46:20;7.97;;;5.00;;
19414;SDS011;9843;48.882;12.592;2023-03-21T09:48:53;8.55;;;3.67;;
19414;SDS011;9843;48.882;12.592;2023-03-21T09:51:22;5.50;;;3.03;;
19414;SDS011;9843;48.882;12.592;2023-03-21T09:53:51;7.35;;;2.80;;
19414;SDS011;9843;48.882;12.592;2023-03-21T09:56:19;6.60;;;4.22;;
19414;SDS011;9843;48.882;12.592;2023-03-21T09:58:48;4.82;;;3.72;;
19414;SDS011;9843;48.882;12.592;2023-03-21T10:01:19;9.05;;;3.00;;
19414;SDS011;9843;48.882;12.592;2023-03-21T10:03:51;6.47;;;3.85;;
19414;SDS011;9843;48.882;12.592;2023-03-21T10:06:19;8.13;;;4.60;;
19414;SDS011;9843;48.882;12.592;2023-03-21T10:08:53;5.30;;;3.55;;
19414;SDS011;9843;48.882;12.592;2023-03-21T10:11:21;6.72;;;3.30;;
19414;SDS011;9843;48.882;12.592;2023-03-21T10:13:53;5.40;;;2.90;;
19414;SDS011;9843;48.882;12.592;2023-03-21T10:16:23;4.15;;;2.97;;
19414;SDS011;9843;48.882;12.592;2023-03-21T10:18:51;5.53;;;3.33;;
19414;SDS011;9843;48.882;12.592;2023-03-21T10:21:20;7.85;;;2.67;;
19414;SDS011;9843;48.882;12.592;2023-03-21T10:23:49;3.47;;;2.63;;
19414;SDS011;9843;48.882;12.592;2023-03-21T10:26:17;5.53;;;3.83;;
19414;SDS011;9843;48.882;12.592;2023-03-21T10:28:44;8.00;;;3.78;;
19414;SDS011;9843;48.882;12.592;2023-03-21T10:31:15;7.72;;;3.58;;
19414;SDS011;9843;48.882;12.592;2023-03-21T10:33:44;4.60;;;2.22;;
19414;SDS011;9843;48.882;12.592;2023-03-21T10:36:13;10.73;;;4.25;;
19414;SDS011;9843;48.882;12.592;2023-03-21T10:38:43;5.68;;;3.70;;
19414;SDS011;9843;48.882;12.592;2023-03-21T10:41:10;4.93;;;2.78;;
19414;SDS011;9843;48.882;12.592;2023-03-21T10:43:38;4.25;;;2.40;;
19414;SDS011;9843;48.882;12.592;2023-03-21T10:46:07;4.47;;;2.63;;
19414;SDS011;9843;48.882;12.592;2023-03-21T10:48:36;2.90;;;2.42;;
19414;SDS011;9843;48.882;12.592;2023-03-21T10:51:04;6.47;;;2.80;;
19414;SDS011;9843;48.882;12.592;2023-03-21T10:53:34;7.75;;;3.22;;
19414;SDS011;9843;48.882;12.592;2023-03-21T10:56:01;4.00;;;2.95;;
19414;SDS011;9843;48.882;12.592;2023-03-21T10:58:33;4.63;;;3.53;;
19414;SDS011;9843;48.882;12.592;2023-03-21T11:01:03;7.20;;;3.38;;
19414;SDS011;9843;48.882;12.592;2023-03-21T11:03:34;4.00;;;3.58;;
19414;SDS011;9843;48.882;12.592;2023-03-21T11:06:04;4.15;;;3.10;;
19414;SDS011;9843;48.882;12.592;2023-03-21T11:08:36;4.32;;;2.72;;
19414;SDS011;9843;48.882;12.592;2023-03-21T11:11:04;7.63;;;4.03;;
19414;SDS011;9843;48.882;12.592;2023-03-21T11:13:32;4.90;;;3.92;;
19414;SDS011;9843;48.882;12.592;2023-03-21T11:16:03;6.78;;;3.97;;
19414;SDS011;9843;48.882;12.592;2023-03-21T11:18:30;6.40;;;3.92;;
19414;SDS011;9843;48.882;12.592;2023-03-21T11:21:01;7.13;;;3.42;;
19414;SDS011;9843;48.882;12.592;2023-03-21T11:23:30;3.58;;;3.25;;
19414;SDS011;9843;48.882;12.592;2023-03-21T11:25:57;5.28;;;3.45;;
19414;SDS011;9843;48.882;12.592;2023-03-21T11:28:26;4.60;;;3.30;;
19414;SDS011;9843;48.882;12.592;2023-03-21T11:30:58;4.72;;;3.85;;
19414;SDS011;9843;48.882;12.592;2023-03-21T11:33:26;8.68;;;3.80;;
19414;SDS011;9843;48.882;12.592;2023-03-21T11:35:58;6.20;;;4.15;;
19414;SDS011;9843;48.882;12.592;2023-03-21T11:38:26;4.55;;;3.25;;
19414;SDS011;9843;48.882;12.592;2023-03-21T11:40:57;6.22;;;3.53;;
19414;SDS011;9843;48.882;12.592;2023-03-21T11:43:26;3.70;;;3.30;;
19414;SDS011;9843;48.882;12.592;2023-03-21T11:45:55;7.82;;;3.80;;
19414;SDS011;9843;48.882;12.592;2023-03-21T11:48:22;8.15;;;4.28;;
19414;SDS011;9843;48.882;12.592;2023-03-21T11:50:50;3.38;;;2.85;;
19414;SDS011;9843;48.882;12.592;2023-03-21T11:53:20;6.45;;;4.05;;
19414;SDS011;9843;48.882;12.592;2023-03-21T11:55:58;6.40;;;3.35;;
19414;SDS011;9843;48.882;12.592;2023-03-21T11:58:31;7.00;;;3.08;;
19414;SDS011;9843;48.882;12.592;2023-03-21T12:01:01;4.45;;;2.35;;
19414;SDS011;9843;48.882;12.592;2023-03-21T12:06:14;4.03;;;2.47;;
19414;SDS011;9843;48.882;12.592;2023-03-21T12:08:44;8.20;;;3.88;;
19414;SDS011;9843;48.882;12.592;2023-03-21T12:11:18;3.70;;;2.53;;
19414;SDS011;9843;48.882;12.592;2023-03-21T12:13:50;4.65;;;2.50;;
19414;SDS011;9843;48.882;12.592;2023-03-21T12:16:23;5.25;;;4.20;;
19414;SDS011;9843;48.882;12.592;2023-03-21T12:18:57;4.95;;;3.58;;
19414;SDS011;9843;48.882;12.592;2023-03-21T12:21:25;4.28;;;3.13;;
19414;SDS011;9843;48.882;12.592;2023-03-21T12:23:57;4.28;;;2.95;;
19414;SDS011;9843;48.882;12.592;2023-03-21T12:26:29;4.80;;;3.60;;
19414;SDS011;9843;48.882;12.592;2023-03-21T12:29:05;4.32;;;3.15;;
19414;SDS011;9843;48.882;12.592;2023-03-21T12:31:37;4.20;;;3.80;;
19414;SDS011;9843;48.882;12.592;2023-03-21T12:34:10;5.18;;;4.05;;
19414;SDS011;9843;48.882;12.592;2023-03-21T12:36:46;8.82;;;3.97;;
19414;SDS011;9843;48.882;12.592;2023-03-21T12:39:20;6.03;;;3.13;;
19414;SDS011;9843;48.882;12.592;2023-03-21T12:41:54;5.18;;;2.95;;
19414;SDS011;9843;48.882;12.592;2023-03-21T12:44:23;7.80;;;3.55;;
19414;SDS011;9843;48.882;12.592;2023-03-21T12:46:54;7.35;;;4.63;;
19414;SDS011;9843;48.882;12.592;2023-03-21T12:49:23;6.00;;;4.13;;
19414;SDS011;9843;48.882;12.592;2023-03-21T12:51:53;6.43;;;3.20;;
19414;SDS011;9843;48.882;12.592;2023-03-21T12:54:22;8.00;;;3.72;;
19414;SDS011;9843;48.882;12.592;2023-03-21T12:56:53;6.50;;;3.33;;
19414;SDS011;9843;48.882;12.592;2023-03-21T12:59:22;4.25;;;3.47;;
19414;SDS011;9843;48.882;12.592;2023-03-21T13:01:52;4.55;;;3.28;;
19414;SDS011;9843;48.882;12.592;2023-03-21T13:04:30;5.00;;;3.22;;
19414;SDS011;9843;48.882;12.592;2023-03-21T13:06:58;3.90;;;2.60;;
19414;SDS011;9843;48.882;12.592;2023-03-21T13:09:29;5.50;;;2.67;;
19414;SDS011;9843;48.882;12.592;2023-03-21T13:11:58;4.30;;;3.00;;
19414;SDS011;9843;48.882;12.592;2023-03-21T13:14:32;3.95;;;2.80;;
19414;SDS011;9843;48.882;12.592;2023-03-21T13:17:00;6.03;;;3.45;;
19414;SDS011;9843;48.882;12.592;2023-03-21T13:19:30;9.05;;;3.58;;
19414;SDS011;9843;48.882;12.592;2023-03-21T13:22:04;6.25;;;3.97;;
19414;SDS011;9843;48.882;12.592;2023-03-21T13:24:36;4.30;;;3.13;;
19414;SDS011;9843;48.882;12.592;2023-03-21T13:27:06;5.72;;;3.40;;
19414;SDS011;9843;48.882;12.592;2023-03-21T13:29:40;13.02;;;4.78;;
19414;SDS011;9843;48.882;12.592;2023-03-21T13:32:09;3.55;;;2.65;;
19414;SDS011;9843;48.882;12.592;2023-03-21T13:34:41;4.15;;;2.65;;
19414;SDS011;9843;48.882;12.592;2023-03-21T13:37:11;5.68;;;3.15;;
19414;SDS011;9843;48.882;12.592;2023-03-21T13:39:41;4.90;;;2.80;;
19414;SDS011;9843;48.882;12.592;2023-03-21T13:42:11;5.70;;;2.65;;
19414;SDS011;9843;48.882;12.592;2023-03-21T13:44:45;7.35;;;3.53;;
19414;SDS011;9843;48.882;12.592;2023-03-21T13:50:21;5.72;;;3.00;;
19414;SDS011;9843;48.882;12.592;2023-03-21T13:55:34;5.30;;;3.63;;
19414;SDS011;9843;48.882;12.592;2023-03-21T14:00:45;4.40;;;2.83;;
19414;SDS011;9843;48.882;12.592;2023-03-21T14:03:33;4.68;;;2.75;;
19414;SDS011;9843;48.882;12.592;2023-03-21T14:06:00;5.43;;;2.85;;
19414;SDS011;9843;48.882;12.592;2023-03-21T14:08:27;3.83;;;2.70;;
19414;SDS011;9843;48.882;12.592;2023-03-21T14:10:57;9.45;;;3.35;;
19414;SDS011;9843;48.882;12.592;2023-03-21T14:13:25;8.32;;;3.53;;
19414;SDS011;9843;48.882;12.592;2023-03-21T14:15:55;3.88;;;3.08;;
19414;SDS011;9843;48.882;12.592;2023-03-21T14:18:26;4.95;;;2.83;;
19414;SDS011;9843;48.882;12.592;2023-03-21T14:20:55;3.20;;;2.90;;
19414;SDS011;9843;48.882;12.592;2023-03-21T14:23:22;7.88;;;4.15;;
19414;SDS011;9843;48.882;12.592;2023-03-21T14:25:50;7.40;;;4.32;;
19414;SDS011;9843;48.882;12.592;2023-03-21T14:28:18;7.95;;;3.45;;
19414;SDS011;9843;48.882;12.592;2023-03-21T14:30:49;5.22;;;3.58;;
19414;SDS011;9843;48.882;12.592;2023-03-21T14:33:24;3.63;;;2.28;;
19414;SDS011;9843;48.882;12.592;2023-03-21T14:35:54;4.53;;;2.70;;
19414;SDS011;9843;48.882;12.592;2023-03-21T14:38:23;4.00;;;2.80;;
19414;SDS011;9843;48.882;12.592;2023-03-21T14:40:52;3.23;;;2.90;;
19414;SDS011;9843;48.882;12.592;2023-03-21T14:43:21;4.70;;;4.00;;
19414;SDS011;9843;48.882;12.592;2023-03-21T14:45:50;6.43;;;3.57;;
19414;SDS011;9843;48.882;12.592;2023-03-21T14:48:19;5.83;;;3.60;;
19414;SDS011;9843;48.882;12.592;2023-03-21T14:50:47;4.87;;;3.80;;
19414;SDS011;9843;48.882;12.592;2023-03-21T14:53:16;6.70;;;4.07;;
19414;SDS011;9843;48.882;12.592;2023-03-21T14:55:45;4.10;;;3.67;;
19414;SDS011;9843;48.882;12.592;2023-03-21T14:58:13;7.23;;;5.53;;
19414;SDS011;9843;48.882;12.592;2023-03-21T15:00:41;4.47;;;4.00;;
19414;SDS011;9843;48.882;12.592;2023-03-21T15:03:09;6.20;;;4.43;;
19414;SDS011;9843;48.882;12.592;2023-03-21T15:05:39;6.33;;;3.97;;
19414;SDS011;9843;48.882;12.592;2023-03-21T15:08:11;4.80;;;3.73;;
19414;SDS011;9843;48.882;12.592;2023-03-21T15:10:39;8.53;;;5.83;;